Currently 77°F in Murrieta, California, USA
77°F
91°F / 62°F
8 mph SW
0.00"
Monday, August 3, 2020 7:30 PM PDT

Murrieta, California Weather Summary
Last 36 Hours

Temperature Winds Hourly Humidity Dewpoint
Time Report Norm Report Norm Max Gusts Precip. Rpt. Norm Rpt. Norm Pressure
1Mon 07:30 PM  77.0°F  76°F  8 mph SW  9 mph  14 mph  0.00"  60%  64%  62°F  62°F  N/A
Mon 07:00 PM  79.3°F  78°F  8 mph SW  9 mph  18 mph  0.00"  55%  58%  61°F  61°F  N/A
Mon 06:00 PM  82.0°F  81°F  11 mph SW  11 mph  25 mph  0.00"  N/A  50%  N/A°F  60°F  N/A
Mon 05:00 PM  85.2°F  84°F  14 mph SW  13 mph  26 mph  0.00"  34%  44%  53°F  59°F  N/A
Mon 04:00 PM  88.0°F  86°F  14 mph SW  13 mph  25 mph  0.00"  N/A  41%  N/A°F  59°F  N/A
Mon 03:00 PM  89.3°F  88°F  14 mph SW  12 mph  24 mph  0.00"  N/A  39%  N/A°F  59°F  N/A
2Mon 02:05 PM  91.2°F  88°F  12 mph SW  11 mph  19 mph  ----  44%  38%  66°F  59°F  N/A
Mon 02:00 PM  89.1°F  88°F  12 mph SW  11 mph  20 mph  0.00"  N/A  38%  N/A°F  59°F  N/A
Mon 01:00 PM  89.7°F  88°F  10 mph SW  9 mph  21 mph  0.00"  12%  39%  28°F  59°F  N/A
Mon 12:00 PM  89.2°F  86°F  9 mph SW  7 mph  16 mph  0.00"  32%  41%  54°F  59°F  N/A
Mon 11:00 AM  87.8°F  83°F  9 mph SW  5 mph  13 mph  0.00"  37%  48%  57°F  61°F  N/A
Mon 10:00 AM  82.4°F  79°F  calm  3 mph  4 mph  0.00"  47%  58%  60°F  63°F  N/A
Mon 09:00 AM  76.3°F  74°F  3 mph SE  1 mph  3 mph  0.00"  60%  71%  61°F  64°F  N/A
Mon 08:00 AM  70.8°F  69°F  calm  1 mph  4 mph  0.00"  69%  80%  60°F  63°F  N/A
Mon 07:00 AM  64.9°F  64°F  calm  1 mph  6 mph  0.00"  78%  85%  58°F  60°F  N/A
3Mon 06:09 AM  62.5°F  63°F  2 mph SW  1 mph  5 mph  ----  82%  87%  57°F  59°F  N/A
Mon 06:00 AM  62.6°F  63°F  1 mph SW  1 mph  4 mph  0.00"  82%  87%  57°F  59°F  N/A
Mon 05:00 AM  63.5°F  63°F  2 mph SW  1 mph  4 mph  0.00"  79%  85%  57°F  59°F  N/A
Mon 04:00 AM  64.1°F  64°F  calm  1 mph  3 mph  0.00"  79%  84%  57°F  59°F  N/A
Mon 03:00 AM  65.3°F  64°F  calm  1 mph  5 mph  0.00"  75%  83%  57°F  59°F  N/A
Mon 02:00 AM  66.4°F  65°F  calm  1 mph  4 mph  0.00"  71%  82%  57°F  60°F  N/A
Mon 01:00 AM  67.0°F  66°F  calm  2 mph  6 mph  0.00"  70%  81%  56°F  60°F  N/A
Mon 12:00 AM  68.2°F  67°F  calm  2 mph  5 mph  0.00"  65%  80%  56°F  61°F  N/A
Sun 11:00 PM  69.7°F  68°F  calm  3 mph  none  0.00"  63%  78%  56°F  61°F  N/A
Sun 10:00 PM  71.0°F  69°F  calm  4 mph  6 mph  0.00"  58%  77%  55°F  62°F  N/A
Sun 09:00 PM  73.2°F  71°F  3 mph SW  6 mph  14 mph  0.00"  55%  75%  56°F  62°F  N/A
Sun 08:00 PM  74.1°F  74°F  7 mph SW  9 mph  17 mph  0.00"  66%  69%  62°F  62°F  N/A
Sun 07:00 PM  76.6°F  78°F  7 mph S  9 mph  19 mph  0.00"  60%  58%  61°F  61°F  N/A
Sun 06:00 PM  80.6°F  81°F  9 mph W  11 mph  24 mph  0.00"  N/A  50%  N/A°F  60°F  N/A
Sun 05:00 PM  85.2°F  84°F  12 mph SW  13 mph  25 mph  0.00"  2%  44%  -13°F  59°F  N/A
Sun 04:00 PM  89.7°F  86°F  11 mph W  13 mph  24 mph  0.00"  N/A  41%  N/A°F  59°F  N/A
Sun 03:00 PM  89.6°F  88°F  13 mph SW  12 mph  25 mph  0.00"  23%  39%  46°F  59°F  N/A
Sun 02:00 PM  90.8°F  88°F  11 mph SW  11 mph  23 mph  0.00"  N/A  38%  N/A°F  59°F  N/A
Sun 01:00 PM  91.0°F  88°F  9 mph SW  9 mph  22 mph  0.00"  1%  39%  -31°F  59°F  N/A
Sun 12:00 PM  90.5°F  86°F  12 mph SW  7 mph  21 mph  0.00"  26%  41%  49°F  59°F  N/A
Sun 11:00 AM  88.8°F  83°F  8 mph SW  5 mph  13 mph  0.00"  29%  48%  51°F  61°F  N/A
Sun 10:00 AM  84.3°F  79°F  calm  3 mph  6 mph  0.00"  40%  58%  57°F  63°F  N/A
Sun 09:00 AM  78.3°F  74°F  1 mph SE  1 mph  5 mph  0.00"  47%  71%  56°F  64°F  N/A
Sun 08:00 AM  72.1°F  69°F  calm  1 mph  none  0.00"  55%  81%  55°F  63°F  N/A

  1. Current weather data. No green row appears if the current weather data is also the high or low for the current day.
  2. High temperature for the current day.
  3. Low temperature for the current day.

The Murrieta weather pages are a service of WeatherCurrents. Murrieta, California is located in the Temecula Valley, in southwestern Riverside County, at the junctions of the Interstate 15 and 215 highways.
Copyright ©2020  WeatherCurrents. All rights reserved. - Submit questions and comments - Privacy Policy

This page automatically refreshes every 10 minutes.